Date,TemperatureHighF,TemperatureAvgF,TemperatureLowF,DewpointHighF,DewpointAvgF,DewpointLowF,HumidityHigh,HumidityAvg,HumidityLow,PressureMaxIn,PressureMinIn,WindSpeedMaxMPH,WindSpeedAvgMPH,GustSpeedMaxMPH,PrecipitationSumIn
2012-12-1,70.8,55.7,44.5,55.4,48.9,42.0,94,79,57,30.40,30.31,9,0,11,0.00
2012-12-2,76.5,60.0,46.8,60.9,53.3,44.3,95,80,54,30.39,30.26,12,1,13,0.00
2012-12-3,76.6,59.4,49.4,64.3,54.0,47.1,97,84,50,30.35,30.24,10,1,14,0.00
2012-12-4,73.7,57.6,47.6,62.8,53.8,45.7,97,88,64,30.37,30.23,12,1,12,0.00
2012-12-5,74.7,62.2,51.3,61.0,56.5,49.7,97,83,58,30.24,30.10,15,1,15,0.01
2012-12-6,65.2,57.6,50.6,57.8,50.2,42.2,94,77,58,30.21,30.13,9,1,14,0.00
2012-12-7,61.7,54.0,48.8,52.9,47.0,40.8,90,77,71,30.15,30.00,9,1,9,0.00
2012-12-8,69.5,55.8,44.7,58.0,51.3,43.4,97,86,66,30.11,30.01,8,0,9,0.01
2012-12-9,75.3,62.0,49.2,65.7,58.6,47.3,97,89,71,30.14,29.99,14,1,14,0.00
2012-12-10,75.1,64.4,55.2,63.1,59.2,54.1,97,84,64,29.99,29.75,19,2,19,0.00
2012-12-11,63.9,60.5,55.0,59.3,53.3,45.5,94,77,65,30.11,29.76,8,2,11,0.00
2012-12-12,54.9,49.4,43.1,47.1,44.3,41.1,93,83,69,30.29,30.08,12,2,12,0.36
2012-12-13,54.3,44.2,36.2,45.5,40.7,34.3,94,88,71,30.36,30.21,15,2,15,0.11
2012-12-14,60.2,43.4,31.9,44.1,37.3,30.4,96,81,51,30.41,30.23,6,0,6,0.01
2012-12-15,58.7,47.9,35.1,50.4,43.0,33.0,95,84,64,30.26,30.10,6,0,7,0.00
2012-12-16,64.9,58.8,52.6,62.0,56.3,48.8,96,91,86,30.11,29.88,6,0,8,0.02
2012-12-17,63.4,58.9,55.9,62.2,57.7,54.8,97,96,94,29.91,29.71,13,2,18,0.04
2012-12-18,64.2,56.4,39.0,58.7,46.5,34.4,96,73,34,30.01,29.75,22,5,23,0.42
2012-12-19,70.8,49.9,32.3,47.1,39.9,30.5,96,73,39,30.12,30.00,13,2,14,0.00
2012-12-20,72.5,54.1,35.6,62.4,48.5,33.9,96,83,59,30.12,29.64,27,4,27,0.46
2012-12-21,49.6,44.7,40.1,33.7,27.9,21.0,65,52,41,30.02,29.81,19,12,36,0.00
2012-12-22,58.4,43.0,31.5,27.7,22.7,19.2,80,47,24,30.19,30.02,14,4,22,0.00
2012-12-23,60.1,42.3,26.2,37.1,29.4,21.9,91,63,33,30.23,30.09,12,1,15,0.00
2012-12-24,52.9,47.1,40.2,48.7,41.5,34.2,95,81,63,30.12,29.90,16,0,18,0.58
2012-12-25,53.5,51.8,50.1,52.4,50.4,48.7,96,95,92,30.09,29.92,8,1,10,0.59
2012-12-26,65.8,54.6,40.3,62.3,47.6,31.9,97,78,53,29.93,29.55,31,10,35,0.21
2012-12-27,55.7,43.3,34.1,38.1,34.3,31.1,90,71,49,30.08,29.85,19,4,23,0.00
2012-12-28,52.9,42.5,30.9,42.0,36.5,29.1,100,80,60,30.17,29.92,8,0,8,0.00
2012-12-29,54.4,46.4,39.1,48.5,41.2,32.1,96,83,66,30.10,29.74,25,6,31,0.72
2012-12-30,51.9,38.7,28.1,32.5,28.0,24.5,90,68,36,30.44,30.10,13,1,15,0.00
2012-12-31,60.5,43.2,25.7,46.8,35.2,23.7,94,76,45,30.45,30.19,15,2,15,0.00